createdAt,value
2022-07-26T00:01:14.467Z,97536.28
2022-07-26T00:03:41.883Z,97527.75
2022-07-26T00:06:08.224Z,97536.09
2022-07-26T00:08:35.445Z,97540.09
2022-07-26T00:11:01.749Z,97535.59
2022-07-26T00:13:39.504Z,97545.97
2022-07-26T00:16:06.687Z,97541.16
2022-07-26T00:18:33.923Z,97554.53
2022-07-26T00:21:00.155Z,97543.78
2022-07-26T00:23:27.035Z,97540.91
2022-07-26T00:25:53.985Z,97541.38
2022-07-26T00:28:20.283Z,97545.38
2022-07-26T00:30:46.569Z,97537.91
2022-07-26T00:33:12.875Z,97543.22
2022-07-26T00:35:39.564Z,97544.56
2022-07-26T00:38:08.795Z,97544.28
2022-07-26T00:40:36.154Z,97538.41
2022-07-26T00:43:04.405Z,97541.06
2022-07-26T00:45:30.785Z,97543.75
2022-07-26T00:47:59.985Z,97541.88
2022-07-26T00:50:26.394Z,97547.50
2022-07-26T00:52:52.971Z,97545.38
2022-07-26T00:55:19.209Z,97550.25
2022-07-26T00:57:45.856Z,97548.69
2022-07-26T01:00:12.557Z,97546.81
2022-07-26T01:02:38.919Z,97552.44
2022-07-26T01:05:06.806Z,97546.53
2022-07-26T01:07:34.405Z,97549.47
2022-07-26T01:10:01.237Z,97559.16
2022-07-26T01:12:27.600Z,97550.28
2022-07-26T01:14:55.164Z,97554.59
2022-07-26T01:17:21.416Z,97554.34
2022-07-26T01:19:48.168Z,97557.81
2022-07-26T01:22:14.967Z,97553.63
2022-07-26T01:24:41.415Z,97565.97
2022-07-26T01:27:09.019Z,97560.06
2022-07-26T01:29:36.054Z,97563.84
2022-07-26T01:32:02.911Z,97562.22
2022-07-26T01:34:30.353Z,97555.22
2022-07-26T01:36:56.676Z,97556.81
2022-07-26T01:39:25.865Z,97554.41
2022-07-26T01:41:52.237Z,97562.22
2022-07-26T01:44:18.525Z,97555.25
2022-07-26T01:46:44.913Z,97558.00
2022-07-26T01:49:11.893Z,97556.38
2022-07-26T01:51:38.469Z,97559.63
2022-07-26T01:54:04.959Z,97560.97
2022-07-26T01:56:32.877Z,97558.75
2022-07-26T01:59:02.445Z,97555.06
2022-07-26T02:01:39.012Z,97566.34
2022-07-26T02:04:08.990Z,97559.94
2022-07-26T02:06:37.335Z,97561.31
2022-07-26T02:09:03.696Z,97565.09
2022-07-26T02:11:32.186Z,97561.91
2022-07-26T02:14:01.771Z,97565.13
2022-07-26T02:16:28.104Z,97568.56
2022-07-26T02:18:54.456Z,97565.09
2022-07-26T02:21:20.966Z,97559.75
2022-07-26T02:23:47.424Z,97558.97
2022-07-26T02:26:13.905Z,97556.25
2022-07-26T02:28:40.352Z,97558.94
2022-07-26T02:31:07.013Z,97555.19
2022-07-26T02:33:33.272Z,97549.28
2022-07-26T02:36:00.961Z,97549.56
2022-07-26T02:38:27.183Z,97553.88
2022-07-26T02:40:53.667Z,97556.81
2022-07-26T02:43:20.560Z,97561.16
2022-07-26T02:46:01.080Z,97566.00
2022-07-26T02:48:28.299Z,97566.03
2022-07-26T02:50:55.020Z,97566.59
2022-07-26T02:53:22.113Z,97572.19
2022-07-26T02:55:50.348Z,97567.38
2022-07-26T02:58:16.569Z,97574.38
2022-07-26T03:00:42.882Z,97569.53
2022-07-26T03:03:09.397Z,97576.25
2022-07-26T03:05:35.695Z,97574.91
2022-07-26T03:08:02.022Z,97580.56
2022-07-26T03:10:28.270Z,97573.06
2022-07-26T03:12:54.523Z,97576.03
2022-07-26T03:15:20.965Z,97575.22
2022-07-26T03:17:47.254Z,97584.09
2022-07-26T03:20:13.521Z,97577.09
2022-07-26T03:22:39.952Z,97575.22
2022-07-26T03:25:06.221Z,97575.53
2022-07-26T03:27:32.573Z,97578.50
2022-07-26T03:30:00.292Z,97581.97
2022-07-26T03:32:27.601Z,97585.22
2022-07-26T03:34:54.236Z,97597.53
2022-07-26T03:37:20.727Z,97600.75
2022-07-26T03:39:47.111Z,97584.94
2022-07-26T03:42:16.948Z,97596.22
2022-07-26T03:44:43.202Z,97601.91
2022-07-26T03:47:10.256Z,97594.09
2022-07-26T03:49:38.204Z,97591.66
2022-07-26T03:52:05.111Z,97594.09
2022-07-26T03:54:31.593Z,97597.31
2022-07-26T03:56:57.936Z,97594.91
2022-07-26T03:59:24.274Z,97597.56
2022-07-26T04:01:50.646Z,97604.28
2022-07-26T04:04:18.202Z,97600.81
2022-07-26T04:06:46.913Z,97604.03
2022-07-26T04:09:13.347Z,97599.47
2022-07-26T04:11:41.386Z,97601.63
2022-07-26T04:14:10.770Z,97602.16
2022-07-26T04:16:42.961Z,97601.88
2022-07-26T04:19:10.238Z,97607.00
2022-07-26T04:21:38.847Z,97607.78
2022-07-26T04:24:05.432Z,97607.25
2022-07-26T04:26:31.855Z,97610.50
2022-07-26T04:28:58.176Z,97616.94
2022-07-26T04:31:24.540Z,97611.03
2022-07-26T04:33:51.053Z,97616.38
2022-07-26T04:36:17.861Z,97622.25
2022-07-26T04:38:44.912Z,97614.25
2022-07-26T04:41:12.940Z,97613.44
2022-07-26T04:43:39.350Z,97612.91
2022-07-26T04:46:05.768Z,97626.84
2022-07-26T04:48:32.073Z,97613.97
2022-07-26T04:50:58.476Z,97608.63
2022-07-26T04:53:24.735Z,97611.81
2022-07-26T04:55:51.333Z,97619.63
2022-07-26T04:58:17.622Z,97623.09
2022-07-26T05:01:08.896Z,97621.47
2022-07-26T05:03:32.526Z,97627.56
2022-07-26T05:05:59.012Z,97630.75
2022-07-26T05:08:26.107Z,97629.22
2022-07-26T05:10:55.670Z,97627.28
2022-07-26T05:13:23.116Z,97628.28
2022-07-26T05:15:59.774Z,97633.06
2022-07-26T05:18:31.937Z,97638.13
2022-07-26T05:21:15.683Z,97638.06
2022-07-26T05:23:43.137Z,97634.53
2022-07-26T05:26:10.897Z,97631.19
2022-07-26T05:28:39.411Z,97620.78
2022-07-26T05:31:06.586Z,97634.94
2022-07-26T05:33:33.799Z,97631.56
2022-07-26T05:36:00.081Z,97634.97
2022-07-26T05:38:27.248Z,97635.94
2022-07-26T05:40:53.616Z,97631.88
2022-07-26T05:43:19.876Z,97627.25
2022-07-26T05:45:46.155Z,97619.91
2022-07-26T05:48:12.544Z,97630.84
2022-07-26T05:50:38.791Z,97626.81
2022-07-26T05:53:05.043Z,97620.09
2022-07-26T05:55:34.599Z,97618.22
2022-07-26T05:58:03.960Z,97620.72
2022-07-26T06:00:30.438Z,97628.00
2022-07-26T06:02:56.685Z,97636.91
2022-07-26T06:05:23.780Z,97630.47
2022-07-26T06:07:50.063Z,97645.97
2022-07-26T06:10:16.325Z,97631.19
2022-07-26T06:12:44.710Z,97641.03
2022-07-26T06:15:16.099Z,97643.97
2022-07-26T06:17:44.064Z,97653.03
2022-07-26T06:20:10.295Z,97655.44
2022-07-26T06:22:36.846Z,97659.13
2022-07-26T06:25:03.531Z,97664.72
2022-07-26T06:27:29.824Z,97655.34
2022-07-26T06:29:56.556Z,97666.56
2022-07-26T06:32:22.968Z,97670.31
2022-07-26T06:34:49.217Z,97672.44
2022-07-26T06:37:15.454Z,97678.09
2022-07-26T06:39:41.694Z,97688.81
2022-07-26T06:42:07.916Z,97690.13
2022-07-26T06:44:34.753Z,97693.09
2022-07-26T06:47:01.200Z,97690.63
2022-07-26T06:49:27.477Z,97686.88
2022-07-26T06:51:54.373Z,97678.88
2022-07-26T06:54:20.819Z,97681.56
2022-07-26T06:56:47.291Z,97682.03
2022-07-26T06:59:13.497Z,97691.13
2022-07-26T07:01:55.506Z,97678.28
2022-07-26T07:04:26.208Z,97687.38
2022-07-26T07:06:56.015Z,97693.56
2022-07-26T07:09:23.574Z,97699.72
2022-07-26T07:11:53.699Z,97696.31
2022-07-26T07:14:25.962Z,97689.63
2022-07-26T07:16:52.254Z,97683.72
2022-07-26T07:19:18.697Z,97711.34
2022-07-26T07:21:45.102Z,97711.03
2022-07-26T07:24:12.005Z,97690.72
2022-07-26T07:26:40.499Z,97703.63
2022-07-26T07:29:06.832Z,97707.34
2022-07-26T07:31:47.933Z,97716.19
2022-07-26T07:34:16.325Z,97726.91
2022-07-26T07:36:42.700Z,97725.53
2022-07-26T07:39:15.357Z,97723.94
2022-07-26T07:41:43.426Z,97728.22
2022-07-26T07:44:10.414Z,97718.84
2022-07-26T07:46:36.961Z,97705.19
2022-07-26T07:49:03.312Z,97708.94
2022-07-26T07:51:29.740Z,97695.53
2022-07-26T07:53:57.962Z,97708.44
2022-07-26T07:56:25.704Z,97714.31
2022-07-26T07:58:52.891Z,97717.53
2022-07-26T08:01:19.585Z,97722.09
2022-07-26T08:03:50.667Z,97741.59
2022-07-26T08:06:18.307Z,97735.44
2022-07-26T08:08:45.538Z,97753.91
2022-07-26T08:11:15.225Z,97748.44
2022-07-26T08:13:45.810Z,97751.94
2022-07-26T08:16:14.932Z,97761.63
2022-07-26T08:18:56.277Z,97759.94
2022-07-26T08:21:24.856Z,97757.53
2022-07-26T08:23:55.417Z,97739.84
2022-07-26T08:26:22.084Z,97755.69
2022-07-26T08:28:58.556Z,97747.09
2022-07-26T08:31:26.687Z,97747.41
2022-07-26T08:33:53.182Z,97761.09
2022-07-26T08:36:19.419Z,97769.13
2022-07-26T08:38:47.122Z,97761.63
2022-07-26T08:41:14.441Z,97751.75
2022-07-26T08:43:48.979Z,97745.88
2022-07-26T08:46:24.868Z,97767.28
2022-07-26T08:48:52.001Z,97770.22
2022-07-26T08:51:19.019Z,97784.97
2022-07-26T08:53:45.460Z,97762.44
2022-07-26T08:56:14.792Z,97783.38
2022-07-26T08:58:41.314Z,97798.91
2022-07-26T09:01:07.609Z,97799.97
2022-07-26T09:03:34.061Z,97797.84
2022-07-26T09:06:00.330Z,97776.66
2022-07-26T09:08:27.783Z,97789.84
2022-07-26T09:10:54.830Z,97791.47
2022-07-26T09:13:21.424Z,97809.91
2022-07-26T09:15:47.748Z,97814.97
2022-07-26T09:18:14.502Z,97815.53
2022-07-26T09:20:41.759Z,97819.84
2022-07-26T09:23:08.020Z,97827.59
2022-07-26T09:25:34.584Z,97826.50
2022-07-26T09:28:00.837Z,97829.44
2022-07-26T09:30:27.475Z,97823.00
2022-07-26T09:32:58.801Z,97830.00
2022-07-26T09:38:12.671Z,97836.69
2022-07-26T09:40:38.919Z,97836.09
2022-07-26T09:43:05.272Z,97830.47
2022-07-26T09:45:31.604Z,97837.41
2022-07-26T09:47:57.976Z,97836.63
2022-07-26T09:50:24.288Z,97833.94
2022-07-26T09:52:51.030Z,97843.84
2022-07-26T09:55:17.260Z,97833.34
2022-07-26T09:57:44.762Z,97818.09
2022-07-26T10:00:11.914Z,97819.19
2022-07-26T10:02:38.609Z,97815.44
2022-07-26T10:05:07.064Z,97824.34
2022-07-26T10:07:34.067Z,97836.94
2022-07-26T10:10:00.659Z,97828.63
2022-07-26T10:12:30.454Z,97834.53
2022-07-26T10:14:56.992Z,97827.78
2022-07-26T10:17:29.000Z,97832.06
2022-07-26T10:19:57.590Z,97833.19
2022-07-26T10:22:23.820Z,97840.34
2022-07-26T10:24:53.113Z,97842.50
2022-07-26T10:27:24.794Z,97843.56
2022-07-26T10:29:54.538Z,97842.44
2022-07-26T10:32:20.983Z,97847.47
2022-07-26T10:34:47.491Z,97852.00
2022-07-26T10:37:14.224Z,97834.63
2022-07-26T10:39:40.487Z,97822.34
2022-07-26T10:42:06.830Z,97829.31
2022-07-26T10:44:33.062Z,97813.75
2022-07-26T10:46:59.507Z,97821.81
2022-07-26T10:49:28.639Z,97804.91
2022-07-26T10:51:56.029Z,97827.16
2022-07-26T10:54:22.477Z,97836.81
2022-07-26T10:56:48.724Z,97829.31
2022-07-26T10:59:27.964Z,97814.31
2022-07-26T11:02:01.785Z,97835.75
2022-07-26T11:04:29.873Z,97841.97
2022-07-26T11:06:58.385Z,97850.28
2022-07-26T11:09:25.465Z,97854.50
2022-07-26T11:11:52.292Z,97841.03
2022-07-26T11:14:18.621Z,97841.56
2022-07-26T11:16:45.619Z,97841.03
2022-07-26T11:19:11.883Z,97839.38
2022-07-26T11:21:40.620Z,97839.91
2022-07-26T11:24:07.359Z,97849.03
2022-07-26T11:26:33.842Z,97846.88
2022-07-26T11:29:00.082Z,97851.13
2022-07-26T11:31:48.131Z,97830.19
2022-07-26T11:34:13.242Z,97839.31
2022-07-26T11:36:40.048Z,97839.03
2022-07-26T11:39:06.345Z,97843.34
2022-07-26T11:41:34.293Z,97843.34
2022-07-26T11:44:02.543Z,97840.63
2022-07-26T11:46:29.106Z,97847.41
2022-07-26T11:48:58.580Z,97845.97
2022-07-26T11:51:24.882Z,97843.00
2022-07-26T11:53:52.427Z,97849.13
2022-07-26T11:56:18.693Z,97840.53
2022-07-26T11:58:44.941Z,97839.41
2022-07-26T12:01:11.182Z,97846.91
2022-07-26T12:03:37.568Z,97836.94
2022-07-26T12:06:03.839Z,97822.13
2022-07-26T12:08:30.683Z,97825.03
2022-07-26T12:10:56.975Z,97830.28
2022-07-26T12:13:23.299Z,97822.50
2022-07-26T12:15:49.669Z,97814.19
2022-07-26T12:18:16.016Z,97791.66
2022-07-26T12:20:44.046Z,97798.13
2022-07-26T12:23:10.476Z,97809.97
2022-07-26T12:25:36.744Z,97823.00
2022-07-26T12:28:03.914Z,97827.84
2022-07-26T12:30:30.772Z,97826.81
2022-07-26T12:32:57.309Z,97820.91
2022-07-26T12:35:24.052Z,97837.06
2022-07-26T12:37:50.532Z,97843.56
2022-07-26T12:40:16.844Z,97854.06
2022-07-26T12:42:43.122Z,97860.25
2022-07-26T12:45:09.385Z,97861.34
2022-07-26T12:47:35.789Z,97867.59
2022-07-26T12:50:02.065Z,97862.50
2022-07-26T12:52:28.301Z,97869.19
2022-07-26T12:54:54.593Z,97867.81
2022-07-26T12:57:21.506Z,97865.72
2022-07-26T12:59:47.777Z,97871.34
2022-07-26T13:02:14.132Z,97870.47
2022-07-26T13:04:40.401Z,97872.63
2022-07-26T13:07:06.846Z,97863.75
2022-07-26T13:09:34.277Z,97868.56
2022-07-26T13:12:00.850Z,97865.88
2022-07-26T13:14:28.412Z,97859.97
2022-07-26T13:16:55.333Z,97849.97
2022-07-26T13:19:21.718Z,97856.19
2022-07-26T13:21:52.662Z,97857.50
2022-07-26T13:24:19.313Z,97871.75
2022-07-26T13:26:46.422Z,97878.97
2022-07-26T13:29:13.662Z,97884.28
2022-07-26T13:31:40.179Z,97877.31
2022-07-26T13:34:06.706Z,97880.78
2022-07-26T13:36:33.944Z,97888.84
2022-07-26T13:39:00.215Z,97895.47
2022-07-26T13:41:26.799Z,97882.28
2022-07-26T13:43:54.917Z,97882.88
2022-07-26T13:46:21.252Z,97891.47
2022-07-26T13:49:00.046Z,97890.06
2022-07-26T13:51:27.094Z,97893.00
2022-07-26T13:53:55.273Z,97896.50
2022-07-26T13:56:21.930Z,97907.25
2022-07-26T13:58:48.301Z,97912.03
2022-07-26T14:01:14.725Z,97931.38
2022-07-26T14:03:41.028Z,97931.09
2022-07-26T14:06:07.428Z,97928.88
2022-07-26T14:08:33.801Z,97944.22
2022-07-26T14:11:00.665Z,97940.13
2022-07-26T14:13:27.793Z,97944.69
2022-07-26T14:15:56.020Z,97962.97
2022-07-26T14:18:22.367Z,97959.19
2022-07-26T14:20:48.844Z,97955.69
2022-07-26T14:23:15.209Z,97951.09
2022-07-26T14:25:41.530Z,97954.31
2022-07-26T14:28:08.064Z,97964.03
2022-07-26T14:30:34.661Z,97963.22
2022-07-26T14:33:00.941Z,97966.72
2022-07-26T14:35:37.599Z,97974.22
2022-07-26T14:38:04.388Z,97980.09
2022-07-26T14:40:30.687Z,97977.38
2022-07-26T14:42:58.568Z,97981.69
2022-07-26T14:45:24.964Z,97979.28
2022-07-26T14:47:51.309Z,97971.97
2022-07-26T14:50:17.769Z,97978.50
2022-07-26T14:52:44.206Z,97978.50
2022-07-26T14:55:10.649Z,97979.22
2022-07-26T14:57:39.665Z,97989.16
2022-07-26T15:00:07.057Z,97984.28
2022-07-26T15:02:34.315Z,97984.75
2022-07-26T15:05:01.899Z,97984.75
2022-07-26T15:07:28.126Z,97979.34
2022-07-26T15:09:54.401Z,97982.56
2022-07-26T15:12:21.409Z,97972.38
2022-07-26T15:14:48.764Z,97978.34
2022-07-26T15:17:15.012Z,97977.53
2022-07-26T15:19:41.389Z,97979.13
2022-07-26T15:22:07.827Z,97984.28
2022-07-26T15:24:37.806Z,97981.28
2022-07-26T15:27:06.232Z,97980.41
2022-07-26T15:29:33.329Z,97992.22
2022-07-26T15:32:00.007Z,97993.53
2022-07-26T15:34:26.980Z,97988.44
2022-07-26T15:36:53.354Z,97983.03
2022-07-26T15:39:19.653Z,97974.41
2022-07-26T15:41:47.148Z,97975.00
2022-07-26T15:44:14.449Z,97973.41
2022-07-26T15:46:41.450Z,97970.47
2022-07-26T15:49:07.893Z,97968.06
2022-07-26T15:51:34.273Z,97973.47
2022-07-26T15:54:01.330Z,97974.56
2022-07-26T15:56:27.582Z,97976.19
2022-07-26T15:58:53.878Z,97965.38
2022-07-26T16:01:21.188Z,97979.34
2022-07-26T16:03:47.476Z,97965.88
2022-07-26T16:06:14.160Z,97968.56
2022-07-26T16:08:58.942Z,97968.56
2022-07-26T16:11:28.335Z,97973.97
2022-07-26T16:14:01.073Z,97965.38
2022-07-26T16:16:28.311Z,97963.75
2022-07-26T16:18:54.599Z,97971.84
2022-07-26T16:21:20.978Z,97960.25
2022-07-26T16:23:47.280Z,97976.72
2022-07-26T16:26:14.441Z,97972.94
2022-07-26T16:28:40.757Z,97977.53
2022-07-26T16:31:07.052Z,97988.03
2022-07-26T16:33:33.385Z,97993.97
2022-07-26T16:36:02.943Z,97980.75
2022-07-26T16:38:32.311Z,97985.34
2022-07-26T16:40:58.550Z,97975.66
2022-07-26T16:43:25.175Z,97983.75
2022-07-26T16:45:51.478Z,97988.34
2022-07-26T16:48:17.737Z,97985.34
2022-07-26T16:50:43.942Z,97984.53
2022-07-26T16:53:13.174Z,97979.13
2022-07-26T16:55:40.073Z,97983.75
2022-07-26T16:58:07.848Z,97977.53
2022-07-26T17:00:34.300Z,97972.16
2022-07-26T17:03:00.816Z,97966.75
2022-07-26T17:05:27.099Z,97966.75
2022-07-26T17:07:53.287Z,97973.50
2022-07-26T17:10:19.967Z,97975.13
2022-07-26T17:12:48.030Z,97983.53
2022-07-26T17:15:14.780Z,97988.94
2022-07-26T17:17:48.378Z,97986.53
2022-07-26T17:20:16.001Z,97988.69
2022-07-26T17:22:42.354Z,97989.78
2022-07-26T17:25:08.600Z,97985.47
2022-07-26T17:27:35.522Z,97986.06
2022-07-26T17:30:06.171Z,97984.44
2022-07-26T17:32:33.848Z,97987.44
2022-07-26T17:35:00.168Z,97987.72
2022-07-26T17:37:27.898Z,97983.44
2022-07-26T17:39:57.346Z,97976.41
2022-07-26T17:42:23.751Z,97978.03
2022-07-26T17:44:49.999Z,97974.81
2022-07-26T17:47:17.894Z,97974.31
2022-07-26T17:49:54.948Z,97977.28
2022-07-26T17:52:21.727Z,97971.38
2022-07-26T17:54:48.176Z,97963.56
2022-07-26T17:57:14.762Z,97971.16
2022-07-26T17:59:41.044Z,97969.25
2022-07-26T18:02:07.608Z,97967.94
2022-07-26T18:04:35.388Z,97960.94
2022-07-26T18:07:06.586Z,97963.13
2022-07-26T18:09:32.891Z,97959.91
2022-07-26T18:11:59.217Z,97964.78
2022-07-26T18:14:25.695Z,97963.19
2022-07-26T18:16:54.464Z,97968.88
2022-07-26T18:19:22.934Z,97968.34
2022-07-26T18:21:50.306Z,97960.50
2022-07-26T18:24:17.761Z,97957.28
2022-07-26T18:26:44.172Z,97952.44
2022-07-26T18:29:10.876Z,97953.56
2022-07-26T18:31:37.374Z,97955.72
2022-07-26T18:34:06.567Z,97949.03
2022-07-26T18:36:33.468Z,97959.00
2022-07-26T18:39:01.916Z,97944.19
2022-07-26T18:41:28.144Z,97947.97
2022-07-26T18:43:54.448Z,97942.88
2022-07-26T18:46:21.475Z,97946.94
2022-07-26T18:48:47.989Z,97940.25
2022-07-26T18:51:18.160Z,97936.22
2022-07-26T18:53:44.448Z,97949.97
2022-07-26T18:56:10.739Z,97944.06
2022-07-26T18:58:39.379Z,97945.16
2022-07-26T19:01:05.884Z,97945.72
2022-07-26T19:03:32.229Z,97953.31
2022-07-26T19:05:58.998Z,97950.09
2022-07-26T19:08:26.195Z,97943.38
2022-07-26T19:10:52.443Z,97943.66
2022-07-26T19:13:18.788Z,97953.91
2022-07-26T19:15:45.408Z,97960.41
2022-07-26T19:18:12.090Z,97962.59
2022-07-26T19:20:42.811Z,97961.25
2022-07-26T19:23:10.577Z,97964.22
2022-07-26T19:25:36.998Z,97969.09
2022-07-26T19:28:03.329Z,97968.56
2022-07-26T19:30:29.671Z,97962.41
2022-07-26T19:32:56.022Z,97970.25
2022-07-26T19:35:23.162Z,97970.53
2022-07-26T19:37:49.920Z,97973.53
2022-07-26T19:40:16.378Z,97974.59
2022-07-26T19:42:42.673Z,97977.03
2022-07-26T19:45:08.963Z,97975.16
2022-07-26T19:47:35.775Z,97974.06
2022-07-26T19:50:02.033Z,97968.16
2022-07-26T19:52:29.180Z,97973.03
2022-07-26T19:54:55.482Z,97969.84
2022-07-26T19:57:22.105Z,97968.19
2022-07-26T19:59:48.462Z,97964.97
2022-07-26T20:02:15.131Z,97967.16
2022-07-26T20:04:45.660Z,97976.34
2022-07-26T20:07:13.858Z,97971.53
2022-07-26T20:09:40.455Z,97972.59
2022-07-26T20:12:06.922Z,97980.16
2022-07-26T20:14:33.183Z,97977.72
2022-07-26T20:16:59.545Z,97980.72
2022-07-26T20:19:25.926Z,97977.22
2022-07-26T20:21:52.295Z,97987.19
2022-07-26T20:24:19.468Z,97987.75
2022-07-26T20:26:45.758Z,97992.34
2022-07-26T20:29:12.393Z,97985.31
2022-07-26T20:31:39.568Z,97993.69
2022-07-26T20:34:07.914Z,97989.41
2022-07-26T20:36:34.244Z,97986.19
2022-07-26T20:39:01.027Z,97976.50
2022-07-26T20:41:27.453Z,97990.22
2022-07-26T20:44:00.094Z,97985.41
2022-07-26T20:46:26.658Z,97978.41
2022-07-26T20:48:53.444Z,97975.19
2022-07-26T20:51:21.071Z,97979.78
2022-07-26T20:53:47.372Z,97983.56
2022-07-26T20:56:14.389Z,97986.53
2022-07-26T20:58:40.624Z,97994.09
2022-07-26T21:01:06.931Z,97997.06
2022-07-26T21:03:34.788Z,97999.75
2022-07-26T21:06:01.110Z,97995.97
2022-07-26T21:08:28.504Z,97997.34
2022-07-26T21:10:54.754Z,98000.03
2022-07-26T21:13:21.116Z,98004.06
2022-07-26T21:15:47.356Z,97994.41
2022-07-26T21:18:13.698Z,97990.38
2022-07-26T21:20:40.928Z,97998.16
2022-07-26T21:23:16.867Z,98000.31
2022-07-26T21:25:45.403Z,98003.28
2022-07-26T21:28:12.381Z,98000.88
2022-07-26T21:30:39.677Z,98010.06
2022-07-26T21:33:06.347Z,98019.22
2022-07-26T21:35:38.328Z,98019.47
2022-07-26T21:38:04.858Z,98018.66
2022-07-26T21:40:31.282Z,98021.38
2022-07-26T21:42:57.528Z,98025.16
2022-07-26T21:45:24.989Z,98028.91
2022-07-26T21:47:51.285Z,98026.50
2022-07-26T21:50:19.192Z,98027.59
2022-07-26T21:52:45.817Z,98031.63
2022-07-26T21:55:17.756Z,98037.00
2022-07-26T21:57:44.491Z,98035.38
2022-07-26T22:00:11.097Z,98039.13
2022-07-26T22:02:37.466Z,98037.53
2022-07-26T22:05:03.938Z,98032.16
2022-07-26T22:07:30.255Z,98030.56
2022-07-26T22:09:56.523Z,98026.25
2022-07-26T22:12:22.792Z,98030.81
2022-07-26T22:14:49.128Z,98027.34
2022-07-26T22:17:15.437Z,98033.78
2022-07-26T22:19:41.781Z,98041.84
2022-07-26T22:22:08.774Z,98045.66
2022-07-26T22:24:35.615Z,98035.44
2022-07-26T22:27:04.237Z,98038.13
2022-07-26T22:29:39.922Z,98032.22
2022-07-26T22:32:07.878Z,98029.25
2022-07-26T22:34:34.323Z,98032.22
2022-07-26T22:37:01.500Z,98042.97
2022-07-26T22:39:28.532Z,98041.34
2022-07-26T22:42:14.918Z,98034.66
2022-07-26T22:44:42.376Z,98036.25
2022-07-26T22:47:09.554Z,98027.91
2022-07-26T22:49:37.362Z,98025.75
2022-07-26T22:52:03.697Z,98017.97
2022-07-26T22:54:30.128Z,98014.75
2022-07-26T22:56:56.928Z,98023.91
2022-07-26T22:59:23.245Z,98022.00
2022-07-26T23:01:49.601Z,98030.34
2022-07-26T23:04:17.730Z,98033.84
2022-07-26T23:06:45.486Z,98027.94
2022-07-26T23:09:12.469Z,98023.38
2022-07-26T23:11:39.027Z,98018.28
2022-07-26T23:14:05.348Z,98023.66
2022-07-26T23:16:32.018Z,98023.94
2022-07-26T23:18:58.929Z,98026.88
2022-07-26T23:21:25.191Z,98034.16
2022-07-26T23:23:51.737Z,98040.31
2022-07-26T23:26:18.593Z,98042.50
2022-07-26T23:28:44.875Z,98048.41
2022-07-26T23:31:11.457Z,98041.69
2022-07-26T23:33:51.474Z,98043.56
2022-07-26T23:36:20.438Z,98044.66
2022-07-26T23:38:46.842Z,98043.03
2022-07-26T23:41:13.248Z,98041.44
2022-07-26T23:43:39.687Z,98044.13
2022-07-26T23:46:05.934Z,98036.06
2022-07-26T23:48:32.327Z,98038.22
2022-07-26T23:50:58.661Z,98031.22
2022-07-26T23:53:27.249Z,98029.59
2022-07-26T23:55:55.716Z,98028.78
2022-07-26T23:58:22.365Z,98032.28
